createdAt,value
2022-09-06T00:00:02.103Z,6.70
2022-09-06T00:01:02.093Z,8.20
2022-09-06T00:02:02.079Z,6.90
2022-09-06T00:03:02.176Z,6.00
2022-09-06T00:04:02.166Z,5.90
2022-09-06T00:05:02.041Z,6.70
2022-09-06T00:06:02.022Z,8.50
2022-09-06T00:07:02.012Z,7.00
2022-09-06T00:08:02.018Z,6.60
2022-09-06T00:09:01.984Z,5.80
2022-09-06T00:10:01.979Z,8.30
2022-09-06T00:11:01.967Z,7.40
2022-09-06T00:12:01.975Z,5.80
2022-09-06T00:13:01.946Z,6.90
2022-09-06T00:14:01.925Z,5.40
2022-09-06T00:15:01.907Z,6.20
2022-09-06T00:16:01.935Z,7.20
2022-09-06T00:17:01.880Z,5.20
2022-09-06T00:18:01.868Z,6.50
2022-09-06T00:19:02.039Z,5.60
2022-09-06T00:20:01.853Z,6.60
2022-09-06T00:21:01.830Z,6.40
2022-09-06T00:22:01.837Z,6.50
2022-09-06T00:23:01.801Z,6.10
2022-09-06T00:24:01.806Z,6.90
2022-09-06T00:25:01.781Z,5.40
2022-09-06T00:26:01.755Z,5.30
2022-09-06T00:27:01.750Z,5.70
2022-09-06T00:28:01.730Z,6.90
2022-09-06T00:29:01.839Z,5.60
2022-09-06T00:30:01.708Z,5.50
2022-09-06T00:31:01.787Z,9.00
2022-09-06T00:32:01.696Z,7.50
2022-09-06T00:33:01.662Z,5.80
2022-09-06T00:34:01.651Z,9.00
2022-09-06T00:35:01.676Z,5.10
2022-09-06T00:36:01.633Z,6.10
2022-09-06T00:37:01.628Z,7.30
2022-09-06T00:38:01.638Z,5.30
2022-09-06T00:39:01.599Z,7.60
2022-09-06T00:40:01.712Z,5.20
2022-09-06T00:41:01.575Z,7.00
2022-09-06T00:42:01.563Z,6.70
2022-09-06T00:43:01.551Z,5.50
2022-09-06T00:44:01.561Z,6.20
2022-09-06T00:45:01.526Z,5.30
2022-09-06T00:46:01.589Z,7.10
2022-09-06T00:47:01.568Z,7.40
2022-09-06T00:48:01.479Z,5.70
2022-09-06T00:49:01.466Z,7.00
2022-09-06T00:50:01.449Z,6.20
2022-09-06T00:51:01.441Z,5.70
2022-09-06T00:52:01.443Z,5.20
2022-09-06T00:53:01.412Z,6.00
2022-09-06T00:54:01.423Z,5.60
2022-09-06T00:55:01.384Z,8.10
2022-09-06T00:56:01.371Z,5.80
2022-09-06T00:57:01.357Z,5.70
2022-09-06T00:58:01.353Z,7.50
2022-09-06T00:59:01.369Z,6.90
2022-09-06T01:00:01.320Z,7.80
2022-09-06T01:01:01.308Z,7.70
2022-09-06T01:02:01.461Z,5.10
2022-09-06T01:03:01.271Z,5.40
2022-09-06T01:04:01.259Z,6.40
2022-09-06T01:05:01.260Z,6.50
2022-09-06T01:06:01.243Z,6.90
2022-09-06T01:07:01.252Z,5.50
2022-09-06T01:08:01.205Z,5.70
2022-09-06T01:09:01.227Z,5.10
2022-09-06T01:10:01.177Z,5.40
2022-09-06T01:11:01.199Z,5.80
2022-09-06T01:12:01.149Z,6.70
2022-09-06T01:13:01.149Z,6.70
2022-09-06T01:14:01.182Z,5.40
2022-09-06T01:15:01.122Z,6.80
2022-09-06T01:16:01.218Z,5.60
2022-09-06T01:17:01.097Z,5.70
2022-09-06T01:18:01.078Z,6.30
2022-09-06T01:19:01.062Z,6.50
2022-09-06T01:20:01.062Z,5.70
2022-09-06T01:21:01.027Z,5.50
2022-09-06T01:22:01.017Z,6.80
2022-09-06T01:23:01.001Z,6.00
2022-09-06T01:24:01.059Z,7.00
2022-09-06T01:25:00.996Z,7.20
2022-09-06T01:26:00.955Z,6.60
2022-09-06T01:27:00.949Z,6.70
2022-09-06T01:28:00.934Z,5.30
2022-09-06T01:29:00.921Z,6.50
2022-09-06T01:30:00.927Z,7.30
2022-09-06T01:31:00.933Z,5.70
2022-09-06T01:32:00.906Z,5.70
2022-09-06T01:33:00.869Z,6.10
2022-09-06T01:34:00.850Z,5.40
2022-09-06T01:35:00.870Z,5.70
2022-09-06T01:36:00.851Z,5.50
2022-09-06T01:37:09.920Z,7.20
2022-09-06T01:38:00.807Z,5.30
2022-09-06T01:39:00.792Z,7.00
2022-09-06T01:40:00.810Z,7.50
2022-09-06T01:41:00.806Z,5.70
2022-09-06T01:42:00.739Z,6.60
2022-09-06T01:43:00.770Z,6.20
2022-09-06T01:44:00.719Z,6.00
2022-09-06T01:45:00.708Z,7.00
2022-09-06T01:46:00.730Z,5.60
2022-09-06T01:47:00.699Z,6.00
2022-09-06T01:48:00.663Z,5.80
2022-09-06T01:49:00.650Z,5.70
2022-09-06T01:50:00.637Z,6.50
2022-09-06T01:51:00.624Z,6.80
2022-09-06T01:52:00.636Z,7.00
2022-09-06T01:53:00.607Z,6.10
2022-09-06T01:54:00.581Z,5.90
2022-09-06T01:55:00.621Z,6.90
2022-09-06T01:56:00.558Z,6.60
2022-09-06T01:57:00.578Z,5.50
2022-09-06T01:58:00.535Z,8.50
2022-09-06T01:59:00.547Z,6.20
2022-09-06T02:00:00.508Z,6.00
2022-09-06T02:01:00.498Z,6.00
2022-09-06T02:02:00.478Z,6.30
2022-09-06T02:03:00.499Z,7.10
2022-09-06T02:04:00.454Z,6.30
2022-09-06T02:05:00.439Z,6.00
2022-09-06T02:06:00.449Z,8.10
2022-09-06T02:07:00.420Z,6.50
2022-09-06T02:08:00.441Z,7.60
2022-09-06T02:09:00.384Z,7.60
2022-09-06T02:10:00.370Z,8.20
2022-09-06T02:11:00.410Z,5.90
2022-09-06T02:12:00.348Z,7.00
2022-09-06T02:13:00.363Z,7.00
2022-09-06T02:14:00.315Z,7.70
2022-09-06T02:15:00.332Z,5.70
2022-09-06T02:16:00.287Z,6.40
2022-09-06T02:17:00.345Z,6.00
2022-09-06T02:18:00.308Z,5.60
2022-09-06T02:19:00.248Z,6.80
2022-09-06T02:20:00.244Z,7.80
2022-09-06T02:21:00.234Z,7.80
2022-09-06T02:22:00.204Z,7.50
2022-09-06T02:23:00.230Z,7.20
2022-09-06T02:24:00.181Z,6.40
2022-09-06T02:25:00.191Z,7.00
2022-09-06T02:26:00.156Z,6.00
2022-09-06T02:27:00.167Z,6.30
2022-09-06T02:28:00.153Z,9.10
2022-09-06T02:29:00.114Z,6.70
2022-09-06T02:30:00.128Z,6.90
2022-09-06T02:31:00.270Z,6.40
2022-09-06T02:32:00.092Z,5.20
2022-09-06T02:33:00.102Z,7.50
2022-09-06T02:34:00.077Z,7.90
2022-09-06T02:35:00.045Z,7.30
2022-09-06T02:36:00.027Z,5.30
2022-09-06T02:37:00.010Z,5.60
2022-09-06T02:38:00.001Z,6.10
2022-09-06T02:39:00.004Z,5.60
2022-09-06T02:40:00.034Z,7.40
2022-09-06T02:40:59.978Z,6.40
2022-09-06T02:41:59.976Z,7.20
2022-09-06T02:42:59.931Z,5.40
2022-09-06T02:43:59.919Z,5.90
2022-09-06T02:44:59.904Z,6.10
2022-09-06T02:45:59.984Z,6.10
2022-09-06T02:46:59.910Z,6.60
2022-09-06T02:47:59.871Z,7.60
2022-09-06T02:48:59.851Z,7.50
2022-09-06T02:49:59.847Z,5.50
2022-09-06T02:50:59.820Z,5.70
2022-09-06T02:51:59.849Z,9.60
2022-09-06T02:52:59.802Z,6.30
2022-09-06T02:53:59.792Z,8.30
2022-09-06T02:54:59.803Z,7.50
2022-09-06T02:55:59.753Z,8.00
2022-09-06T02:56:59.758Z,7.70
2022-09-06T02:57:59.735Z,7.00
2022-09-06T02:58:59.722Z,6.60
2022-09-06T02:59:59.736Z,7.00
2022-09-06T03:00:59.740Z,7.30
2022-09-06T03:01:59.711Z,7.50
2022-09-06T03:02:59.666Z,6.70
2022-09-06T03:03:59.662Z,7.40
2022-09-06T03:04:59.666Z,7.00
2022-09-06T03:05:59.636Z,6.60
2022-09-06T03:06:59.631Z,7.40
2022-09-06T03:07:59.595Z,7.60
2022-09-06T03:08:59.586Z,9.00
2022-09-06T03:09:59.614Z,6.30
2022-09-06T03:10:59.595Z,5.70
2022-09-06T03:11:59.574Z,8.10
2022-09-06T03:12:59.537Z,8.80
2022-09-06T03:13:59.518Z,6.00
2022-09-06T03:14:59.508Z,6.60
2022-09-06T03:15:59.499Z,6.90
2022-09-06T03:16:59.582Z,6.60
2022-09-06T03:17:59.479Z,6.10
2022-09-06T03:18:59.447Z,6.40
2022-09-06T03:19:59.441Z,6.50
2022-09-06T03:20:59.423Z,8.20
2022-09-06T03:21:59.431Z,6.80
2022-09-06T03:22:59.421Z,8.60
2022-09-06T03:23:59.402Z,7.80
2022-09-06T03:24:59.369Z,6.30
2022-09-06T03:25:59.354Z,7.50
2022-09-06T03:26:59.342Z,6.90
2022-09-06T03:27:59.358Z,6.30
2022-09-06T03:28:59.319Z,7.00
2022-09-06T03:29:59.304Z,6.50
2022-09-06T03:30:59.330Z,7.60
2022-09-06T03:31:59.300Z,6.60
2022-09-06T03:33:02.546Z,6.90
2022-09-06T03:33:59.256Z,8.20
2022-09-06T03:34:59.240Z,6.70
2022-09-06T03:35:59.222Z,6.40
2022-09-06T03:36:59.249Z,7.60
2022-09-06T03:37:59.200Z,8.20
2022-09-06T03:38:59.178Z,7.70
2022-09-06T03:39:59.263Z,7.20
2022-09-06T03:40:59.167Z,6.60
2022-09-06T03:41:59.163Z,8.70
2022-09-06T03:42:59.165Z,7.40
2022-09-06T03:43:59.115Z,7.00
2022-09-06T03:44:59.105Z,8.20
2022-09-06T03:45:59.172Z,8.50
2022-09-06T03:46:59.110Z,7.10
2022-09-06T03:47:59.092Z,6.70
2022-09-06T03:48:59.043Z,7.40
2022-09-06T03:49:59.039Z,8.10
2022-09-06T03:50:59.043Z,8.10
2022-09-06T03:51:59.021Z,7.40
2022-09-06T03:52:59.023Z,8.70
2022-09-06T03:53:58.993Z,7.50
2022-09-06T03:54:58.973Z,8.00
2022-09-06T03:55:58.961Z,6.70
2022-09-06T03:56:58.946Z,7.50
2022-09-06T03:57:58.931Z,8.60
2022-09-06T03:58:58.938Z,7.10
2022-09-06T03:59:58.908Z,6.20
2022-09-06T04:00:58.932Z,6.50
2022-09-06T04:01:58.903Z,10.20
2022-09-06T04:03:01.718Z,6.10
2022-09-06T04:03:58.871Z,8.50
2022-09-06T04:04:58.834Z,8.10
2022-09-06T04:05:58.869Z,8.60
2022-09-06T04:06:58.812Z,6.80
2022-09-06T04:07:58.801Z,7.70
2022-09-06T04:08:58.815Z,7.40
2022-09-06T04:09:58.772Z,9.40
2022-09-06T04:10:58.757Z,7.20
2022-09-06T04:11:58.749Z,9.10
2022-09-06T04:12:58.732Z,7.50
2022-09-06T04:13:58.749Z,7.80
2022-09-06T04:14:58.703Z,8.10
2022-09-06T04:15:58.690Z,7.80
2022-09-06T04:16:58.741Z,7.50
2022-09-06T04:17:58.668Z,7.60
2022-09-06T04:18:58.679Z,9.20
2022-09-06T04:19:58.648Z,9.50
2022-09-06T04:20:58.623Z,8.00
2022-09-06T04:21:58.637Z,8.70
2022-09-06T04:22:58.593Z,7.40
2022-09-06T04:23:58.714Z,7.00
2022-09-06T04:24:58.576Z,8.40
2022-09-06T04:25:58.555Z,8.50
2022-09-06T04:26:58.544Z,9.70
2022-09-06T04:27:58.534Z,7.70
2022-09-06T04:28:58.514Z,8.90
2022-09-06T04:29:58.529Z,8.30
2022-09-06T04:31:03.320Z,8.20
2022-09-06T04:31:58.547Z,7.30
2022-09-06T04:32:58.504Z,7.90
2022-09-06T04:33:58.475Z,8.30
2022-09-06T04:34:58.443Z,7.30
2022-09-06T04:35:58.422Z,7.30
2022-09-06T04:36:58.426Z,7.40
2022-09-06T04:37:58.403Z,9.00
2022-09-06T04:38:58.378Z,7.70
2022-09-06T04:39:58.428Z,9.00
2022-09-06T04:40:58.440Z,8.90
2022-09-06T04:41:58.341Z,7.20
2022-09-06T04:42:58.358Z,7.60
2022-09-06T04:43:58.323Z,7.70
2022-09-06T04:44:58.393Z,6.80
2022-09-06T04:45:58.359Z,9.10
2022-09-06T04:46:58.275Z,7.60
2022-09-06T04:47:58.296Z,7.80
2022-09-06T04:48:58.256Z,10.10
2022-09-06T04:49:58.239Z,7.20
2022-09-06T04:50:58.219Z,8.80
2022-09-06T04:51:58.212Z,8.30
2022-09-06T04:52:58.198Z,7.40
2022-09-06T04:53:58.204Z,7.60
2022-09-06T04:54:58.169Z,7.30
2022-09-06T04:55:58.181Z,7.20
2022-09-06T04:56:58.138Z,8.30
2022-09-06T04:57:58.126Z,9.20
2022-09-06T04:58:58.195Z,7.00
2022-09-06T04:59:58.106Z,7.10
2022-09-06T05:00:58.183Z,9.20
2022-09-06T05:01:58.117Z,8.80
2022-09-06T05:02:58.087Z,8.60
2022-09-06T05:03:58.053Z,12.80
2022-09-06T05:04:58.034Z,8.00
2022-09-06T05:05:58.046Z,8.00
2022-09-06T05:06:58.007Z,9.40
2022-09-06T05:07:57.995Z,7.30
2022-09-06T05:08:58.010Z,7.20
2022-09-06T05:09:57.966Z,6.60
2022-09-06T05:10:57.968Z,6.70
2022-09-06T05:11:57.941Z,7.80
2022-09-06T05:12:57.966Z,7.00
2022-09-06T05:13:57.992Z,7.30
2022-09-06T05:14:57.891Z,7.00
2022-09-06T05:15:57.908Z,8.90
2022-09-06T05:16:57.936Z,7.70
2022-09-06T05:17:57.884Z,6.90
2022-09-06T05:18:57.844Z,8.80
2022-09-06T05:19:57.828Z,8.70
2022-09-06T05:20:57.817Z,8.40
2022-09-06T05:21:57.815Z,7.10
2022-09-06T05:22:57.819Z,7.10
2022-09-06T05:23:58.790Z,11.40
2022-09-06T05:24:57.772Z,6.70
2022-09-06T05:25:57.778Z,7.00
2022-09-06T05:26:57.736Z,7.20
2022-09-06T05:27:57.737Z,8.10
2022-09-06T05:28:57.771Z,6.70
2022-09-06T05:29:57.719Z,7.20
2022-09-06T05:30:57.702Z,7.80
2022-09-06T05:31:57.758Z,7.10
2022-09-06T05:32:57.719Z,7.20
2022-09-06T05:33:57.681Z,6.50
2022-09-06T05:34:57.643Z,8.00
2022-09-06T05:35:57.615Z,6.70
2022-09-06T05:36:57.597Z,7.00
2022-09-06T05:37:57.591Z,7.80
2022-09-06T05:38:57.604Z,6.90
2022-09-06T05:39:57.695Z,6.20
2022-09-06T05:40:57.543Z,6.30
2022-09-06T05:41:57.551Z,7.40
2022-09-06T05:42:57.582Z,7.50
2022-09-06T05:43:57.534Z,9.50
2022-09-06T05:44:57.503Z,9.40
2022-09-06T05:45:57.538Z,9.10
2022-09-06T05:46:57.462Z,8.90
2022-09-06T05:47:57.482Z,8.40
2022-09-06T05:48:57.433Z,10.00
2022-09-06T05:49:57.432Z,6.30
2022-09-06T05:50:57.408Z,6.80
2022-09-06T05:51:57.432Z,7.80
2022-09-06T05:52:57.385Z,6.90
2022-09-06T05:53:57.399Z,7.70
2022-09-06T05:54:57.365Z,6.10
2022-09-06T05:55:57.344Z,6.50
2022-09-06T05:56:57.338Z,5.90
2022-09-06T05:57:57.347Z,6.70
2022-09-06T05:58:57.308Z,7.10
2022-09-06T05:59:57.308Z,8.30
2022-09-06T06:00:57.295Z,6.10
2022-09-06T06:01:57.384Z,6.50
2022-09-06T06:02:57.301Z,7.60
2022-09-06T06:03:57.307Z,5.50
2022-09-06T06:04:57.333Z,6.30
2022-09-06T06:05:57.220Z,5.60
2022-09-06T06:06:57.213Z,5.00
2022-09-06T06:07:57.189Z,6.40
2022-09-06T06:08:57.207Z,6.00
2022-09-06T06:09:57.155Z,6.10
2022-09-06T06:10:57.167Z,6.50
2022-09-06T06:11:57.135Z,5.60
2022-09-06T06:12:57.140Z,5.80
2022-09-06T06:13:57.115Z,5.70
2022-09-06T06:14:57.120Z,7.40
2022-09-06T06:15:57.097Z,5.10
2022-09-06T06:16:57.179Z,5.40
2022-09-06T06:17:57.089Z,5.70
2022-09-06T06:18:57.039Z,7.40
2022-09-06T06:19:57.036Z,6.90
2022-09-06T06:20:57.013Z,5.40
2022-09-06T06:21:57.071Z,5.80
2022-09-06T06:22:57.007Z,5.00
2022-09-06T06:23:56.981Z,4.90
2022-09-06T06:24:56.987Z,6.20
2022-09-06T06:25:56.944Z,6.40
2022-09-06T06:26:56.959Z,6.70
2022-09-06T06:27:56.911Z,6.30
2022-09-06T06:28:56.930Z,6.40
2022-09-06T06:29:56.909Z,6.40
2022-09-06T06:30:56.888Z,4.70
2022-09-06T06:31:56.934Z,4.50
2022-09-06T06:32:56.848Z,4.70
2022-09-06T06:33:56.837Z,5.00
2022-09-06T06:34:56.832Z,5.00
2022-09-06T06:35:56.834Z,5.80
2022-09-06T06:36:56.801Z,4.70
2022-09-06T06:37:56.809Z,6.40
2022-09-06T06:38:56.771Z,5.10
2022-09-06T06:39:56.844Z,6.00
2022-09-06T06:41:00.176Z,4.50
2022-09-06T06:41:56.749Z,5.40
2022-09-06T06:42:56.727Z,5.20
2022-09-06T06:43:56.711Z,4.70
2022-09-06T06:44:56.718Z,4.40
2022-09-06T06:45:56.720Z,6.30
2022-09-06T06:46:56.671Z,7.50
2022-09-06T06:47:56.652Z,4.30
2022-09-06T06:48:56.641Z,4.30
2022-09-06T06:49:56.649Z,4.70
2022-09-06T06:50:56.613Z,4.60
2022-09-06T06:51:56.616Z,5.90
2022-09-06T06:52:56.624Z,6.20
2022-09-06T06:53:56.575Z,5.20
2022-09-06T06:54:56.566Z,4.40
2022-09-06T06:55:56.556Z,5.60
2022-09-06T06:56:56.536Z,5.80
2022-09-06T06:57:56.555Z,6.50
2022-09-06T06:58:56.505Z,5.70
2022-09-06T06:59:56.494Z,4.30
2022-09-06T07:00:56.637Z,6.70
2022-09-06T07:01:56.542Z,7.00
2022-09-06T07:02:56.456Z,8.80
2022-09-06T07:03:56.454Z,6.70
2022-09-06T07:04:56.424Z,5.70
2022-09-06T07:06:12.610Z,5.60
2022-09-06T07:07:56.404Z,5.70
2022-09-06T07:08:56.374Z,5.30
2022-09-06T07:10:56.351Z,5.60
2022-09-06T07:11:56.374Z,5.70
2022-09-06T07:12:56.320Z,7.00
2022-09-06T07:13:56.355Z,4.90
2022-09-06T07:14:56.293Z,3.80
2022-09-06T07:15:56.344Z,4.00
2022-09-06T07:16:56.296Z,4.10
2022-09-06T07:17:56.252Z,4.70
2022-09-06T07:18:56.243Z,5.30
2022-09-06T07:21:56.204Z,4.50
2022-09-06T07:22:56.346Z,4.20
2022-09-06T07:24:11.603Z,4.80
2022-09-06T07:24:56.167Z,4.70
2022-09-06T07:25:56.142Z,4.10
2022-09-06T07:27:56.142Z,4.30
2022-09-06T07:28:56.108Z,4.30
2022-09-06T07:29:56.110Z,4.60
2022-09-06T07:30:56.103Z,5.10
2022-09-06T07:32:11.631Z,5.40
2022-09-06T07:32:56.063Z,4.50
2022-09-06T07:33:56.032Z,5.20
2022-09-06T07:34:56.022Z,4.60
2022-09-06T07:35:56.035Z,5.80
2022-09-06T07:36:56.000Z,6.50
2022-09-06T07:37:55.993Z,5.30
2022-09-06T07:38:55.973Z,5.50
2022-09-06T07:39:56.084Z,5.60
2022-09-06T07:40:55.958Z,5.40
2022-09-06T07:41:55.936Z,4.50
2022-09-06T07:42:55.920Z,6.00
2022-09-06T07:43:55.920Z,5.50
2022-09-06T07:44:55.897Z,4.00
2022-09-06T07:45:55.945Z,5.90
2022-09-06T07:47:59.051Z,4.60
2022-09-06T07:48:55.847Z,5.50
2022-09-06T07:50:58.957Z,6.90
2022-09-06T07:51:55.825Z,7.60
2022-09-06T07:53:15.051Z,8.70
2022-09-06T07:54:12.771Z,6.90
2022-09-06T07:54:55.768Z,4.90
2022-09-06T07:55:55.736Z,5.60
2022-09-06T07:56:55.737Z,5.40
2022-09-06T07:57:55.720Z,5.80
2022-09-06T07:58:55.730Z,7.70
2022-09-06T07:59:55.699Z,7.10
2022-09-06T08:00:55.704Z,5.30
2022-09-06T08:01:55.741Z,5.60
2022-09-06T08:02:55.656Z,6.60
2022-09-06T08:03:55.661Z,6.60
2022-09-06T08:04:55.632Z,5.30
2022-09-06T08:06:11.155Z,5.50
2022-09-06T08:09:55.559Z,4.40
2022-09-06T08:10:55.546Z,4.60
2022-09-06T08:11:55.534Z,4.20
2022-09-06T08:12:55.518Z,5.90
2022-09-06T08:13:55.564Z,4.40
2022-09-06T08:14:55.498Z,3.70
2022-09-06T08:15:55.501Z,4.50
2022-09-06T08:16:55.462Z,5.10
2022-09-06T08:17:55.460Z,5.90
2022-09-06T08:18:55.464Z,4.70
2022-09-06T08:19:55.455Z,6.00
2022-09-06T08:20:55.421Z,6.80
2022-09-06T08:21:55.428Z,5.50
2022-09-06T08:22:55.416Z,6.40
2022-09-06T08:23:55.398Z,5.60
2022-09-06T08:24:55.370Z,4.60
2022-09-06T08:25:55.349Z,5.00
2022-09-06T08:26:55.336Z,6.10
2022-09-06T08:27:55.343Z,4.70
2022-09-06T08:28:55.306Z,5.60
2022-09-06T08:29:55.293Z,4.00
2022-09-06T08:30:55.284Z,6.70
2022-09-06T08:31:55.379Z,4.80
2022-09-06T08:32:55.255Z,5.40
2022-09-06T08:33:55.238Z,4.80
2022-09-06T08:34:55.230Z,4.20
2022-09-06T08:35:55.236Z,4.80
2022-09-06T08:36:55.207Z,5.50
2022-09-06T08:37:55.193Z,5.30
2022-09-06T08:38:55.168Z,3.90
2022-09-06T08:39:55.194Z,4.00
2022-09-06T08:40:55.178Z,6.00
2022-09-06T08:41:55.134Z,4.60
2022-09-06T08:42:55.130Z,4.60
2022-09-06T08:44:57.573Z,4.20
2022-09-06T08:45:55.866Z,8.30
2022-09-06T08:46:55.191Z,5.80
2022-09-06T08:47:55.057Z,4.50
2022-09-06T08:48:55.038Z,5.00
2022-09-06T08:49:55.024Z,4.90
2022-09-06T08:50:55.013Z,4.50
2022-09-06T08:51:55.010Z,5.20
2022-09-06T08:53:15.663Z,4.70
2022-09-06T08:53:54.981Z,5.10
2022-09-06T08:54:54.966Z,4.30
2022-09-06T08:55:54.986Z,5.40
2022-09-06T08:56:54.956Z,5.30
2022-09-06T08:57:54.934Z,5.20
2022-09-06T08:58:54.909Z,6.10
2022-09-06T08:59:54.895Z,5.10
2022-09-06T09:00:54.963Z,5.30
2022-09-06T09:01:54.892Z,4.10
2022-09-06T09:02:54.887Z,6.00
2022-09-06T09:03:54.834Z,4.80
2022-09-06T09:04:54.837Z,4.90
2022-09-06T09:05:54.808Z,4.10
2022-09-06T09:06:54.822Z,5.30
2022-09-06T09:07:54.815Z,4.80
2022-09-06T09:08:54.803Z,4.20
2022-09-06T09:09:54.761Z,4.00
2022-09-06T09:10:54.750Z,4.00
2022-09-06T09:11:54.734Z,6.10
2022-09-06T09:12:54.951Z,4.40
2022-09-06T09:13:56.089Z,5.40
2022-09-06T09:14:54.714Z,4.80
2022-09-06T09:15:54.770Z,4.40
2022-09-06T09:16:54.691Z,4.20
2022-09-06T09:17:54.644Z,5.10
2022-09-06T09:18:54.711Z,3.80
2022-09-06T09:19:54.626Z,4.20
2022-09-06T09:20:54.648Z,4.40
2022-09-06T09:21:54.593Z,4.80
2022-09-06T09:22:54.610Z,4.00
2022-09-06T09:23:54.570Z,6.30
2022-09-06T09:24:54.547Z,5.90
2022-09-06T09:25:54.549Z,4.00
2022-09-06T09:26:54.558Z,3.90
2022-09-06T09:27:54.510Z,4.70
2022-09-06T09:28:54.540Z,5.70
2022-09-06T09:30:54.510Z,4.90
2022-09-06T09:31:54.592Z,6.20
2022-09-06T09:32:54.482Z,4.30
2022-09-06T09:33:54.449Z,4.60
2022-09-06T09:34:54.436Z,5.80
2022-09-06T09:35:54.439Z,7.10
2022-09-06T09:37:59.132Z,4.40
2022-09-06T09:38:54.409Z,6.40
2022-09-06T09:39:54.387Z,5.00
2022-09-06T09:40:54.340Z,5.40
2022-09-06T09:41:54.327Z,5.20
2022-09-06T09:42:54.341Z,4.40
2022-09-06T09:43:54.328Z,4.30
2022-09-06T09:44:54.292Z,5.10
2022-09-06T09:45:54.264Z,3.90
2022-09-06T09:46:54.323Z,7.10
2022-09-06T09:47:54.250Z,4.80
2022-09-06T09:48:54.266Z,4.60
2022-09-06T09:49:54.223Z,4.30
2022-09-06T09:50:54.210Z,4.30
2022-09-06T09:51:54.191Z,4.80
2022-09-06T09:52:54.186Z,5.40
2022-09-06T09:53:54.190Z,5.70
2022-09-06T09:54:54.154Z,5.20
2022-09-06T09:55:54.148Z,4.60
2022-09-06T09:56:54.148Z,5.90
2022-09-06T09:57:54.115Z,4.70
2022-09-06T09:58:54.132Z,4.10
2022-09-06T09:59:54.092Z,5.20
2022-09-06T10:00:54.177Z,5.00
2022-09-06T10:01:54.098Z,4.10
2022-09-06T10:02:54.050Z,3.90
2022-09-06T10:04:54.039Z,4.30
2022-09-06T10:05:56.380Z,4.40
2022-09-06T10:07:09.865Z,3.60
2022-09-06T10:07:53.981Z,3.30
2022-09-06T10:08:53.979Z,4.10
2022-09-06T10:09:53.975Z,3.30
2022-09-06T10:10:53.946Z,3.30
2022-09-06T10:11:53.944Z,4.90
2022-09-06T10:12:53.919Z,3.20
2022-09-06T10:13:53.900Z,3.10
2022-09-06T10:14:53.924Z,3.90
2022-09-06T10:15:53.972Z,2.90
2022-09-06T10:16:53.862Z,4.10
2022-09-06T10:17:53.845Z,3.60
2022-09-06T10:18:53.861Z,3.30
2022-09-06T10:19:53.844Z,3.50
2022-09-06T10:20:53.814Z,4.60
2022-09-06T10:21:53.808Z,4.10
2022-09-06T10:22:53.798Z,2.90
2022-09-06T10:24:53.792Z,5.60
2022-09-06T10:25:53.762Z,3.10
2022-09-06T10:26:53.731Z,3.40
2022-09-06T10:28:10.355Z,3.30
2022-09-06T10:28:53.708Z,6.00
2022-09-06T10:29:53.687Z,3.70
2022-09-06T10:30:53.742Z,3.40
2022-09-06T10:31:53.669Z,3.40
2022-09-06T10:32:53.676Z,3.70
2022-09-06T10:33:53.656Z,5.60
2022-09-06T10:34:53.635Z,3.90
2022-09-06T10:35:53.615Z,4.00
2022-09-06T10:36:53.631Z,3.90
2022-09-06T10:37:53.590Z,3.00
2022-09-06T10:38:53.596Z,3.90
2022-09-06T10:39:53.616Z,4.30
2022-09-06T10:40:53.558Z,3.10
2022-09-06T10:41:53.523Z,3.90
2022-09-06T10:42:53.515Z,3.20
2022-09-06T10:43:53.529Z,3.40
2022-09-06T10:44:53.490Z,3.80
2022-09-06T10:45:53.512Z,4.50
2022-09-06T10:46:53.500Z,3.30
2022-09-06T10:47:53.455Z,3.70
2022-09-06T10:48:53.435Z,6.10
2022-09-06T10:49:53.420Z,5.70
2022-09-06T10:50:53.440Z,3.10
2022-09-06T10:51:53.423Z,4.40
2022-09-06T10:52:53.381Z,4.90
2022-09-06T10:53:53.369Z,3.90
2022-09-06T10:54:53.358Z,3.70
2022-09-06T10:55:53.346Z,3.30
2022-09-06T10:56:53.354Z,3.50
2022-09-06T10:59:53.312Z,3.00
2022-09-06T11:00:53.276Z,3.70
2022-09-06T11:01:53.413Z,4.50
2022-09-06T11:03:58.371Z,3.70
2022-09-06T11:05:53.227Z,2.70
2022-09-06T11:06:53.186Z,2.70
2022-09-06T11:08:53.536Z,3.70
2022-09-06T11:09:53.168Z,2.80
2022-09-06T11:10:53.154Z,3.20
2022-09-06T11:11:53.154Z,3.10
2022-09-06T11:12:53.143Z,2.50
2022-09-06T11:13:53.127Z,3.10
2022-09-06T11:14:53.090Z,3.70
2022-09-06T11:15:53.149Z,2.80
2022-09-06T11:16:53.079Z,3.30
2022-09-06T11:17:53.116Z,4.50
2022-09-06T11:18:53.057Z,2.90
2022-09-06T11:19:53.065Z,3.50
2022-09-06T11:20:53.055Z,2.70
2022-09-06T11:21:53.015Z,3.70
2022-09-06T11:22:53.018Z,3.90
2022-09-06T11:23:53.002Z,3.60
2022-09-06T11:24:52.964Z,2.80
2022-09-06T11:25:52.981Z,4.40
2022-09-06T11:26:52.935Z,4.80
2022-09-06T11:27:57.325Z,2.70
2022-09-06T11:28:52.922Z,3.00
2022-09-06T11:29:52.897Z,2.80
2022-09-06T11:30:52.955Z,3.10
2022-09-06T11:32:52.872Z,2.70
2022-09-06T11:33:52.873Z,2.30
2022-09-06T11:34:52.831Z,2.50
2022-09-06T11:35:52.829Z,3.20
2022-09-06T11:36:52.801Z,2.40
2022-09-06T11:37:52.825Z,2.50
2022-09-06T11:38:52.804Z,4.10
2022-09-06T11:40:52.764Z,3.50
2022-09-06T11:41:52.746Z,3.20
2022-09-06T11:42:52.751Z,3.20
2022-09-06T11:43:52.722Z,2.20
2022-09-06T11:44:52.722Z,2.30
2022-09-06T11:45:52.708Z,3.30
2022-09-06T11:46:52.798Z,3.30
2022-09-06T11:47:52.678Z,2.30
2022-09-06T11:48:52.649Z,3.70
2022-09-06T11:49:52.663Z,3.00
2022-09-06T11:50:52.655Z,2.80
2022-09-06T11:51:52.627Z,2.50
2022-09-06T11:52:52.599Z,3.00
2022-09-06T11:53:52.610Z,3.20
2022-09-06T11:54:52.601Z,3.20
2022-09-06T11:55:52.561Z,3.20
2022-09-06T11:56:52.538Z,2.60
2022-09-06T11:57:52.546Z,3.00
2022-09-06T11:58:52.537Z,3.10
2022-09-06T11:59:52.541Z,2.90
2022-09-06T12:00:52.504Z,3.80
2022-09-06T12:01:52.490Z,2.40
2022-09-06T12:02:53.224Z,3.90
2022-09-06T12:04:08.520Z,3.70
2022-09-06T12:04:52.465Z,2.50
2022-09-06T12:05:52.440Z,3.30
2022-09-06T12:06:52.449Z,5.10
2022-09-06T12:07:52.424Z,4.30
2022-09-06T12:08:52.386Z,3.20
2022-09-06T12:09:52.390Z,3.00
2022-09-06T12:10:52.406Z,2.00
2022-09-06T12:11:52.349Z,2.20
2022-09-06T12:12:52.342Z,2.50
2022-09-06T12:13:52.363Z,3.40
2022-09-06T12:14:52.331Z,2.90
2022-09-06T12:15:52.383Z,3.70
2022-09-06T12:16:52.314Z,3.50
2022-09-06T12:17:52.300Z,3.40
2022-09-06T12:18:52.265Z,2.20
2022-09-06T12:19:52.256Z,3.30
2022-09-06T12:20:52.243Z,2.20
2022-09-06T12:21:52.231Z,2.00
2022-09-06T12:22:52.225Z,2.50
2022-09-06T12:23:52.227Z,2.90
2022-09-06T12:24:52.184Z,3.60
2022-09-06T12:25:52.177Z,3.60
2022-09-06T12:26:55.731Z,3.50
2022-09-06T12:27:52.171Z,3.50
2022-09-06T12:28:52.220Z,3.30
2022-09-06T12:29:52.135Z,2.10
2022-09-06T12:30:52.214Z,3.00
2022-09-06T12:31:52.213Z,2.60
2022-09-06T12:32:52.117Z,2.30
2022-09-06T12:33:52.089Z,2.40
2022-09-06T12:35:58.348Z,4.00
2022-09-06T12:36:52.215Z,2.90
2022-09-06T12:37:52.024Z,3.20
2022-09-06T12:38:52.037Z,3.40
2022-09-06T12:39:52.026Z,3.00
2022-09-06T12:40:52.006Z,3.00
2022-09-06T12:41:51.996Z,2.70
2022-09-06T12:42:51.959Z,2.30
2022-09-06T12:43:51.949Z,2.60
2022-09-06T12:44:51.963Z,2.20
2022-09-06T12:45:51.924Z,3.40
2022-09-06T12:46:51.986Z,3.00
2022-09-06T12:47:51.902Z,3.90
2022-09-06T12:48:51.888Z,2.90
2022-09-06T12:49:51.865Z,2.10
2022-09-06T12:50:51.857Z,2.20
2022-09-06T12:51:51.875Z,2.80
2022-09-06T12:52:51.841Z,3.60
2022-09-06T12:53:51.843Z,2.40
2022-09-06T12:54:51.789Z,2.00
2022-09-06T12:55:51.800Z,2.50
2022-09-06T12:56:51.776Z,2.30
2022-09-06T12:57:51.759Z,3.80
2022-09-06T12:58:51.778Z,1.90
2022-09-06T12:59:51.747Z,3.00
2022-09-06T13:00:51.759Z,2.60
2022-09-06T13:01:51.897Z,3.40
2022-09-06T13:02:51.856Z,2.90
2022-09-06T13:03:51.719Z,3.30
2022-09-06T13:04:51.677Z,3.30
2022-09-06T13:05:51.696Z,2.50
2022-09-06T13:06:51.650Z,3.20
2022-09-06T13:07:51.647Z,3.40
2022-09-06T13:08:51.650Z,2.20
2022-09-06T13:09:51.609Z,3.70
2022-09-06T13:10:51.604Z,2.80
2022-09-06T13:11:51.602Z,2.10
2022-09-06T13:12:51.603Z,2.50
2022-09-06T13:13:51.564Z,2.30
2022-09-06T13:14:51.554Z,3.10
2022-09-06T13:15:51.622Z,2.30
2022-09-06T13:16:51.529Z,3.50
2022-09-06T13:17:51.519Z,3.30
2022-09-06T13:18:51.517Z,2.90
2022-09-06T13:19:51.507Z,3.20
2022-09-06T13:20:51.477Z,3.10
2022-09-06T13:21:51.456Z,4.70
2022-09-06T13:22:51.469Z,3.10
2022-09-06T13:23:51.435Z,2.40
2022-09-06T13:24:51.425Z,2.20
2022-09-06T13:25:51.406Z,2.90
2022-09-06T13:26:51.407Z,2.20
2022-09-06T13:27:51.412Z,3.60
2022-09-06T13:28:51.379Z,2.60
2022-09-06T13:29:51.360Z,2.90
2022-09-06T13:30:51.409Z,3.70
2022-09-06T13:31:51.346Z,2.90
2022-09-06T13:32:51.343Z,2.10
2022-09-06T13:33:51.320Z,2.90
2022-09-06T13:34:51.299Z,2.10
2022-09-06T13:35:51.292Z,2.20
2022-09-06T13:36:51.269Z,2.20
2022-09-06T13:37:51.292Z,2.10
2022-09-06T13:38:51.253Z,2.50
2022-09-06T13:39:51.318Z,2.70
2022-09-06T13:41:11.672Z,2.50